sensor_id;sensor_type;location;lat;lon;timestamp;P1;durP1;ratioP1;P2;durP2;ratioP2
65471;SDS011;52068;50.710;14.492;2024-02-14T00:00:10;16.40;;;8.47;;
65471;SDS011;52068;50.710;14.492;2024-02-14T00:02:39;16.05;;;9.05;;
65471;SDS011;52068;50.710;14.492;2024-02-14T00:05:06;14.68;;;8.55;;
65471;SDS011;52068;50.710;14.492;2024-02-14T00:07:32;14.82;;;8.75;;
65471;SDS011;52068;50.710;14.492;2024-02-14T00:09:57;15.15;;;8.55;;
65471;SDS011;52068;50.710;14.492;2024-02-14T00:12:22;16.33;;;8.65;;
65471;SDS011;52068;50.710;14.492;2024-02-14T00:14:49;19.67;;;9.43;;
65471;SDS011;52068;50.710;14.492;2024-02-14T00:17:15;19.25;;;9.77;;
65471;SDS011;52068;50.710;14.492;2024-02-14T00:19:40;18.73;;;8.77;;
65471;SDS011;52068;50.710;14.492;2024-02-14T00:22:06;15.43;;;8.98;;
65471;SDS011;52068;50.710;14.492;2024-02-14T00:24:31;14.35;;;8.85;;
65471;SDS011;52068;50.710;14.492;2024-02-14T00:26:57;14.70;;;9.02;;
65471;SDS011;52068;50.710;14.492;2024-02-14T00:29:22;12.00;;;8.00;;
65471;SDS011;52068;50.710;14.492;2024-02-14T00:31:49;14.50;;;9.07;;
65471;SDS011;52068;50.710;14.492;2024-02-14T00:34:14;15.90;;;8.73;;
65471;SDS011;52068;50.710;14.492;2024-02-14T00:36:40;13.65;;;8.30;;
65471;SDS011;52068;50.710;14.492;2024-02-14T00:39:05;13.80;;;8.30;;
65471;SDS011;52068;50.710;14.492;2024-02-14T00:41:34;11.77;;;8.20;;
65471;SDS011;52068;50.710;14.492;2024-02-14T00:44:00;21.25;;;9.18;;
65471;SDS011;52068;50.710;14.492;2024-02-14T00:46:26;15.55;;;8.60;;
65471;SDS011;52068;50.710;14.492;2024-02-14T00:48:51;15.02;;;8.60;;
65471;SDS011;52068;50.710;14.492;2024-02-14T00:51:16;13.40;;;8.20;;
65471;SDS011;52068;50.710;14.492;2024-02-14T00:53:42;18.70;;;8.15;;
65471;SDS011;52068;50.710;14.492;2024-02-14T00:56:07;15.07;;;8.20;;
65471;SDS011;52068;50.710;14.492;2024-02-14T00:58:33;12.82;;;8.05;;
65471;SDS011;52068;50.710;14.492;2024-02-14T01:00:58;14.27;;;7.93;;
65471;SDS011;52068;50.710;14.492;2024-02-14T01:03:24;13.18;;;7.78;;
65471;SDS011;52068;50.710;14.492;2024-02-14T01:05:49;14.80;;;7.90;;
65471;SDS011;52068;50.710;14.492;2024-02-14T01:08:14;16.95;;;7.70;;
65471;SDS011;52068;50.710;14.492;2024-02-14T01:10:40;13.65;;;7.78;;
65471;SDS011;52068;50.710;14.492;2024-02-14T01:13:05;14.68;;;8.45;;
65471;SDS011;52068;50.710;14.492;2024-02-14T01:15:31;16.25;;;7.40;;
65471;SDS011;52068;50.710;14.492;2024-02-14T01:17:58;14.70;;;8.23;;
65471;SDS011;52068;50.710;14.492;2024-02-14T01:20:24;11.07;;;7.00;;
65471;SDS011;52068;50.710;14.492;2024-02-14T01:22:49;15.07;;;8.38;;
65471;SDS011;52068;50.710;14.492;2024-02-14T01:25:15;12.48;;;7.35;;
65471;SDS011;52068;50.710;14.492;2024-02-14T01:27:40;13.35;;;7.70;;
65471;SDS011;52068;50.710;14.492;2024-02-14T01:30:06;13.50;;;7.97;;
65471;SDS011;52068;50.710;14.492;2024-02-14T01:32:32;12.85;;;7.70;;
65471;SDS011;52068;50.710;14.492;2024-02-14T01:34:57;16.35;;;9.13;;
65471;SDS011;52068;50.710;14.492;2024-02-14T01:37:24;14.02;;;9.02;;
65471;SDS011;52068;50.710;14.492;2024-02-14T01:39:50;16.52;;;9.13;;
65471;SDS011;52068;50.710;14.492;2024-02-14T01:42:15;12.35;;;8.63;;
65471;SDS011;52068;50.710;14.492;2024-02-14T01:44:41;11.80;;;7.75;;
65471;SDS011;52068;50.710;14.492;2024-02-14T01:47:08;13.63;;;8.45;;
65471;SDS011;52068;50.710;14.492;2024-02-14T01:49:35;14.18;;;8.18;;
65471;SDS011;52068;50.710;14.492;2024-02-14T01:52:01;12.95;;;8.38;;
65471;SDS011;52068;50.710;14.492;2024-02-14T01:54:29;14.98;;;7.93;;
65471;SDS011;52068;50.710;14.492;2024-02-14T01:56:55;12.77;;;8.23;;
65471;SDS011;52068;50.710;14.492;2024-02-14T01:59:23;12.38;;;8.10;;
65471;SDS011;52068;50.710;14.492;2024-02-14T02:01:49;16.83;;;8.45;;
65471;SDS011;52068;50.710;14.492;2024-02-14T02:04:16;14.32;;;7.90;;
65471;SDS011;52068;50.710;14.492;2024-02-14T02:06:43;13.80;;;7.63;;
65471;SDS011;52068;50.710;14.492;2024-02-14T02:09:08;11.98;;;7.53;;
65471;SDS011;52068;50.710;14.492;2024-02-14T02:11:46;12.32;;;7.45;;
65471;SDS011;52068;50.710;14.492;2024-02-14T02:14:13;13.38;;;8.40;;
65471;SDS011;52068;50.710;14.492;2024-02-14T02:16:39;11.90;;;8.20;;
65471;SDS011;52068;50.710;14.492;2024-02-14T02:19:04;13.30;;;7.28;;
65471;SDS011;52068;50.710;14.492;2024-02-14T02:21:33;12.90;;;8.10;;
65471;SDS011;52068;50.710;14.492;2024-02-14T02:23:59;12.00;;;7.03;;
65471;SDS011;52068;50.710;14.492;2024-02-14T02:26:34;11.55;;;7.32;;
65471;SDS011;52068;50.710;14.492;2024-02-14T02:32:22;10.05;;;6.90;;
65471;SDS011;52068;50.710;14.492;2024-02-14T02:34:47;12.40;;;7.25;;
65471;SDS011;52068;50.710;14.492;2024-02-14T02:37:12;11.52;;;7.30;;
65471;SDS011;52068;50.710;14.492;2024-02-14T02:39:38;9.68;;;6.57;;
65471;SDS011;52068;50.710;14.492;2024-02-14T02:42:03;14.88;;;7.05;;
65471;SDS011;52068;50.710;14.492;2024-02-14T02:44:29;12.25;;;7.60;;
65471;SDS011;52068;50.710;14.492;2024-02-14T02:46:56;12.15;;;7.10;;
65471;SDS011;52068;50.710;14.492;2024-02-14T02:49:21;10.93;;;7.03;;
65471;SDS011;52068;50.710;14.492;2024-02-14T02:51:47;10.13;;;7.05;;
65471;SDS011;52068;50.710;14.492;2024-02-14T02:54:13;11.40;;;7.07;;
65471;SDS011;52068;50.710;14.492;2024-02-14T02:56:39;11.68;;;6.72;;
65471;SDS011;52068;50.710;14.492;2024-02-14T02:59:05;9.60;;;7.15;;
65471;SDS011;52068;50.710;14.492;2024-02-14T03:01:37;10.93;;;7.32;;
65471;SDS011;52068;50.710;14.492;2024-02-14T03:04:03;13.02;;;7.18;;
65471;SDS011;52068;50.710;14.492;2024-02-14T03:06:28;9.15;;;6.00;;
65471;SDS011;52068;50.710;14.492;2024-02-14T03:08:53;10.10;;;6.72;;
65471;SDS011;52068;50.710;14.492;2024-02-14T03:11:21;14.27;;;7.40;;
65471;SDS011;52068;50.710;14.492;2024-02-14T03:13:46;11.40;;;7.35;;
65471;SDS011;52068;50.710;14.492;2024-02-14T03:16:13;10.48;;;7.13;;
65471;SDS011;52068;50.710;14.492;2024-02-14T03:18:39;13.07;;;7.53;;
65471;SDS011;52068;50.710;14.492;2024-02-14T03:21:05;11.27;;;7.45;;
65471;SDS011;52068;50.710;14.492;2024-02-14T03:23:31;12.27;;;7.38;;
65471;SDS011;52068;50.710;14.492;2024-02-14T03:25:56;10.45;;;6.75;;
65471;SDS011;52068;50.710;14.492;2024-02-14T03:28:22;10.80;;;6.90;;
65471;SDS011;52068;50.710;14.492;2024-02-14T03:30:47;11.05;;;6.97;;
65471;SDS011;52068;50.710;14.492;2024-02-14T03:33:13;12.23;;;7.25;;
65471;SDS011;52068;50.710;14.492;2024-02-14T03:35:38;11.70;;;7.13;;
65471;SDS011;52068;50.710;14.492;2024-02-14T03:38:04;11.48;;;7.38;;
65471;SDS011;52068;50.710;14.492;2024-02-14T03:40:29;12.80;;;7.95;;
65471;SDS011;52068;50.710;14.492;2024-02-14T03:42:57;11.00;;;6.78;;
65471;SDS011;52068;50.710;14.492;2024-02-14T03:45:23;10.43;;;6.90;;
65471;SDS011;52068;50.710;14.492;2024-02-14T03:47:48;12.30;;;7.07;;
65471;SDS011;52068;50.710;14.492;2024-02-14T03:50:14;11.93;;;7.20;;
65471;SDS011;52068;50.710;14.492;2024-02-14T03:52:40;10.68;;;7.05;;
65471;SDS011;52068;50.710;14.492;2024-02-14T03:55:07;12.20;;;7.10;;
65471;SDS011;52068;50.710;14.492;2024-02-14T03:57:33;11.60;;;7.43;;
65471;SDS011;52068;50.710;14.492;2024-02-14T04:00:03;10.75;;;7.05;;
65471;SDS011;52068;50.710;14.492;2024-02-14T04:02:32;12.93;;;7.97;;
65471;SDS011;52068;50.710;14.492;2024-02-14T04:04:58;14.50;;;7.82;;
65471;SDS011;52068;50.710;14.492;2024-02-14T04:07:23;12.50;;;7.13;;
65471;SDS011;52068;50.710;14.492;2024-02-14T04:09:49;12.35;;;7.15;;
65471;SDS011;52068;50.710;14.492;2024-02-14T04:12:14;14.15;;;7.13;;
65471;SDS011;52068;50.710;14.492;2024-02-14T04:14:40;12.57;;;7.57;;
65471;SDS011;52068;50.710;14.492;2024-02-14T04:17:05;12.98;;;8.20;;
65471;SDS011;52068;50.710;14.492;2024-02-14T04:19:32;11.38;;;7.25;;
65471;SDS011;52068;50.710;14.492;2024-02-14T04:21:58;11.55;;;7.00;;
65471;SDS011;52068;50.710;14.492;2024-02-14T04:24:23;12.85;;;7.50;;
65471;SDS011;52068;50.710;14.492;2024-02-14T04:26:49;14.43;;;7.00;;
65471;SDS011;52068;50.710;14.492;2024-02-14T04:29:14;9.65;;;6.43;;
65471;SDS011;52068;50.710;14.492;2024-02-14T04:31:40;11.48;;;6.25;;
65471;SDS011;52068;50.710;14.492;2024-02-14T04:34:05;11.27;;;6.93;;
65471;SDS011;52068;50.710;14.492;2024-02-14T04:36:32;22.55;;;7.45;;
65471;SDS011;52068;50.710;14.492;2024-02-14T04:39:00;13.70;;;7.30;;
65471;SDS011;52068;50.710;14.492;2024-02-14T04:41:25;12.07;;;7.28;;
65471;SDS011;52068;50.710;14.492;2024-02-14T04:43:51;10.82;;;6.32;;
65471;SDS011;52068;50.710;14.492;2024-02-14T04:46:16;13.75;;;7.45;;
65471;SDS011;52068;50.710;14.492;2024-02-14T04:48:42;12.15;;;7.50;;
65471;SDS011;52068;50.710;14.492;2024-02-14T04:51:07;10.20;;;6.45;;
65471;SDS011;52068;50.710;14.492;2024-02-14T04:53:33;11.40;;;6.85;;
65471;SDS011;52068;50.710;14.492;2024-02-14T04:55:58;13.25;;;7.38;;
65471;SDS011;52068;50.710;14.492;2024-02-14T04:58:24;12.35;;;7.63;;
65471;SDS011;52068;50.710;14.492;2024-02-14T05:00:51;12.60;;;7.05;;
65471;SDS011;52068;50.710;14.492;2024-02-14T05:03:16;13.18;;;7.43;;
65471;SDS011;52068;50.710;14.492;2024-02-14T05:05:42;14.98;;;7.78;;
65471;SDS011;52068;50.710;14.492;2024-02-14T05:08:08;13.23;;;7.22;;
65471;SDS011;52068;50.710;14.492;2024-02-14T05:10:33;17.02;;;7.03;;
65471;SDS011;52068;50.710;14.492;2024-02-14T05:12:58;12.70;;;6.75;;
65471;SDS011;52068;50.710;14.492;2024-02-14T05:15:24;20.90;;;6.20;;
65471;SDS011;52068;50.710;14.492;2024-02-14T05:17:49;12.93;;;6.32;;
65471;SDS011;52068;50.710;14.492;2024-02-14T05:20:15;12.27;;;6.38;;
65471;SDS011;52068;50.710;14.492;2024-02-14T05:22:41;16.92;;;6.18;;
65471;SDS011;52068;50.710;14.492;2024-02-14T05:25:07;32.45;;;7.18;;
65471;SDS011;52068;50.710;14.492;2024-02-14T05:27:34;23.08;;;7.20;;
65471;SDS011;52068;50.710;14.492;2024-02-14T05:30:00;14.13;;;7.40;;
65471;SDS011;52068;50.710;14.492;2024-02-14T05:32:25;13.60;;;7.10;;
65471;SDS011;52068;50.710;14.492;2024-02-14T05:34:51;11.30;;;6.75;;
65471;SDS011;52068;50.710;14.492;2024-02-14T05:37:16;12.00;;;6.53;;
65471;SDS011;52068;50.710;14.492;2024-02-14T05:39:42;11.52;;;6.80;;
65471;SDS011;52068;50.710;14.492;2024-02-14T05:42:07;13.45;;;7.22;;
65471;SDS011;52068;50.710;14.492;2024-02-14T05:44:33;10.85;;;6.38;;
65471;SDS011;52068;50.710;14.492;2024-02-14T05:46:58;12.15;;;6.72;;
65471;SDS011;52068;50.710;14.492;2024-02-14T05:49:23;10.82;;;6.60;;
65471;SDS011;52068;50.710;14.492;2024-02-14T05:51:49;10.95;;;6.50;;
65471;SDS011;52068;50.710;14.492;2024-02-14T05:54:16;11.15;;;6.57;;
65471;SDS011;52068;50.710;14.492;2024-02-14T05:56:41;11.93;;;6.72;;
65471;SDS011;52068;50.710;14.492;2024-02-14T05:59:07;10.55;;;6.78;;
65471;SDS011;52068;50.710;14.492;2024-02-14T06:01:32;13.95;;;7.45;;
65471;SDS011;52068;50.710;14.492;2024-02-14T06:03:58;10.43;;;6.82;;
65471;SDS011;52068;50.710;14.492;2024-02-14T06:06:24;12.15;;;7.18;;
65471;SDS011;52068;50.710;14.492;2024-02-14T06:08:49;12.55;;;6.57;;
65471;SDS011;52068;50.710;14.492;2024-02-14T06:11:14;11.75;;;6.85;;
65471;SDS011;52068;50.710;14.492;2024-02-14T06:13:41;11.52;;;6.88;;
65471;SDS011;52068;50.710;14.492;2024-02-14T06:16:06;11.80;;;6.97;;
65471;SDS011;52068;50.710;14.492;2024-02-14T06:18:33;10.52;;;6.93;;
65471;SDS011;52068;50.710;14.492;2024-02-14T06:20:59;11.38;;;6.97;;
65471;SDS011;52068;50.710;14.492;2024-02-14T06:23:25;11.85;;;6.95;;
65471;SDS011;52068;50.710;14.492;2024-02-14T06:25:50;14.85;;;7.20;;
65471;SDS011;52068;50.710;14.492;2024-02-14T06:28:16;11.85;;;6.90;;
65471;SDS011;52068;50.710;14.492;2024-02-14T06:30:41;9.55;;;6.55;;
65471;SDS011;52068;50.710;14.492;2024-02-14T06:33:06;13.25;;;6.47;;
65471;SDS011;52068;50.710;14.492;2024-02-14T06:35:32;12.32;;;6.40;;
65471;SDS011;52068;50.710;14.492;2024-02-14T06:37:57;10.23;;;6.63;;
65471;SDS011;52068;50.710;14.492;2024-02-14T06:40:23;12.45;;;6.80;;
65471;SDS011;52068;50.710;14.492;2024-02-14T06:42:48;11.50;;;6.45;;
65471;SDS011;52068;50.710;14.492;2024-02-14T06:45:15;11.90;;;6.95;;
65471;SDS011;52068;50.710;14.492;2024-02-14T06:47:41;11.93;;;7.13;;
65471;SDS011;52068;50.710;14.492;2024-02-14T06:50:06;11.18;;;7.40;;
65471;SDS011;52068;50.710;14.492;2024-02-14T06:52:33;11.18;;;7.47;;
65471;SDS011;52068;50.710;14.492;2024-02-14T06:54:58;13.55;;;7.10;;
65471;SDS011;52068;50.710;14.492;2024-02-14T06:57:24;11.48;;;7.20;;
65471;SDS011;52068;50.710;14.492;2024-02-14T06:59:49;11.82;;;7.05;;
65471;SDS011;52068;50.710;14.492;2024-02-14T07:02:14;12.07;;;7.28;;
65471;SDS011;52068;50.710;14.492;2024-02-14T07:04:40;9.70;;;6.78;;
65471;SDS011;52068;50.710;14.492;2024-02-14T07:07:05;12.43;;;7.53;;
65471;SDS011;52068;50.710;14.492;2024-02-14T07:09:31;10.88;;;6.13;;
65471;SDS011;52068;50.710;14.492;2024-02-14T07:12:00;11.48;;;6.30;;
65471;SDS011;52068;50.710;14.492;2024-02-14T07:14:26;10.07;;;6.68;;
65471;SDS011;52068;50.710;14.492;2024-02-14T07:16:51;9.80;;;6.60;;
65471;SDS011;52068;50.710;14.492;2024-02-14T07:19:17;9.80;;;6.05;;
65471;SDS011;52068;50.710;14.492;2024-02-14T07:21:42;13.50;;;6.57;;
65471;SDS011;52068;50.710;14.492;2024-02-14T07:24:09;12.27;;;6.90;;
65471;SDS011;52068;50.710;14.492;2024-02-14T07:26:34;12.90;;;6.50;;
65471;SDS011;52068;50.710;14.492;2024-02-14T07:28:59;8.82;;;6.07;;
65471;SDS011;52068;50.710;14.492;2024-02-14T07:31:28;9.35;;;6.07;;
65471;SDS011;52068;50.710;14.492;2024-02-14T07:33:55;12.25;;;7.13;;
65471;SDS011;52068;50.710;14.492;2024-02-14T07:36:21;10.15;;;6.47;;
65471;SDS011;52068;50.710;14.492;2024-02-14T07:38:47;10.32;;;6.93;;
65471;SDS011;52068;50.710;14.492;2024-02-14T07:41:12;12.13;;;6.63;;
65471;SDS011;52068;50.710;14.492;2024-02-14T07:43:38;11.45;;;6.75;;
65471;SDS011;52068;50.710;14.492;2024-02-14T07:46:03;9.52;;;6.93;;
65471;SDS011;52068;50.710;14.492;2024-02-14T07:48:30;14.00;;;6.68;;
65471;SDS011;52068;50.710;14.492;2024-02-14T07:50:56;12.13;;;6.80;;
65471;SDS011;52068;50.710;14.492;2024-02-14T07:53:21;9.70;;;6.45;;
65471;SDS011;52068;50.710;14.492;2024-02-14T07:55:47;10.32;;;6.55;;
65471;SDS011;52068;50.710;14.492;2024-02-14T07:58:12;10.30;;;6.25;;
65471;SDS011;52068;50.710;14.492;2024-02-14T08:00:37;10.45;;;6.00;;
65471;SDS011;52068;50.710;14.492;2024-02-14T08:03:03;11.48;;;6.40;;
65471;SDS011;52068;50.710;14.492;2024-02-14T08:05:31;9.30;;;6.13;;
65471;SDS011;52068;50.710;14.492;2024-02-14T08:07:56;10.38;;;6.45;;
65471;SDS011;52068;50.710;14.492;2024-02-14T08:10:21;8.55;;;6.10;;
65471;SDS011;52068;50.710;14.492;2024-02-14T08:12:47;8.00;;;6.03;;
65471;SDS011;52068;50.710;14.492;2024-02-14T08:15:12;12.68;;;6.80;;
65471;SDS011;52068;50.710;14.492;2024-02-14T08:17:38;15.30;;;6.78;;
65471;SDS011;52068;50.710;14.492;2024-02-14T08:20:03;9.05;;;6.28;;
65471;SDS011;52068;50.710;14.492;2024-02-14T08:22:29;10.25;;;6.43;;
65471;SDS011;52068;50.710;14.492;2024-02-14T08:24:55;10.27;;;6.18;;
65471;SDS011;52068;50.710;14.492;2024-02-14T08:27:21;9.02;;;6.40;;
65471;SDS011;52068;50.710;14.492;2024-02-14T08:29:47;9.60;;;6.53;;
65471;SDS011;52068;50.710;14.492;2024-02-14T08:32:12;11.65;;;6.15;;
65471;SDS011;52068;50.710;14.492;2024-02-14T08:34:37;10.63;;;6.65;;
65471;SDS011;52068;50.710;14.492;2024-02-14T08:37:03;10.05;;;6.45;;
65471;SDS011;52068;50.710;14.492;2024-02-14T08:39:28;11.38;;;6.70;;
65471;SDS011;52068;50.710;14.492;2024-02-14T08:41:54;10.13;;;6.30;;
65471;SDS011;52068;50.710;14.492;2024-02-14T08:44:19;8.85;;;5.80;;
65471;SDS011;52068;50.710;14.492;2024-02-14T08:46:45;9.90;;;6.07;;
65471;SDS011;52068;50.710;14.492;2024-02-14T08:49:13;10.90;;;6.47;;
65471;SDS011;52068;50.710;14.492;2024-02-14T08:51:39;10.40;;;6.40;;
65471;SDS011;52068;50.710;14.492;2024-02-14T08:54:04;11.45;;;6.32;;
65471;SDS011;52068;50.710;14.492;2024-02-14T08:56:34;11.70;;;6.28;;
65471;SDS011;52068;50.710;14.492;2024-02-14T08:59:00;9.77;;;5.85;;
65471;SDS011;52068;50.710;14.492;2024-02-14T09:01:27;9.27;;;6.22;;
65471;SDS011;52068;50.710;14.492;2024-02-14T09:03:56;9.27;;;6.30;;
65471;SDS011;52068;50.710;14.492;2024-02-14T09:06:24;9.32;;;5.93;;
65471;SDS011;52068;50.710;14.492;2024-02-14T09:08:53;7.80;;;5.55;;
65471;SDS011;52068;50.710;14.492;2024-02-14T09:11:19;9.75;;;6.05;;
65471;SDS011;52068;50.710;14.492;2024-02-14T09:13:45;11.70;;;5.78;;
65471;SDS011;52068;50.710;14.492;2024-02-14T09:16:12;8.38;;;6.10;;
65471;SDS011;52068;50.710;14.492;2024-02-14T09:18:40;9.30;;;5.90;;
65471;SDS011;52068;50.710;14.492;2024-02-14T09:21:05;8.65;;;5.72;;
65471;SDS011;52068;50.710;14.492;2024-02-14T09:23:31;10.43;;;6.05;;
65471;SDS011;52068;50.710;14.492;2024-02-14T09:25:57;8.77;;;5.68;;
65471;SDS011;52068;50.710;14.492;2024-02-14T09:28:22;9.40;;;6.00;;
65471;SDS011;52068;50.710;14.492;2024-02-14T09:30:48;10.85;;;6.18;;
65471;SDS011;52068;50.710;14.492;2024-02-14T09:33:13;9.27;;;5.47;;
65471;SDS011;52068;50.710;14.492;2024-02-14T09:35:39;8.25;;;5.75;;
65471;SDS011;52068;50.710;14.492;2024-02-14T09:38:09;8.10;;;5.57;;
65471;SDS011;52068;50.710;14.492;2024-02-14T09:40:38;8.55;;;5.20;;
65471;SDS011;52068;50.710;14.492;2024-02-14T09:43:08;9.10;;;6.00;;
65471;SDS011;52068;50.710;14.492;2024-02-14T09:45:42;9.15;;;5.57;;
65471;SDS011;52068;50.710;14.492;2024-02-14T09:48:09;10.07;;;5.50;;
65471;SDS011;52068;50.710;14.492;2024-02-14T09:50:36;8.48;;;5.63;;
65471;SDS011;52068;50.710;14.492;2024-02-14T09:53:02;8.88;;;5.50;;
65471;SDS011;52068;50.710;14.492;2024-02-14T09:55:27;8.48;;;5.47;;
65471;SDS011;52068;50.710;14.492;2024-02-14T09:57:53;9.40;;;5.82;;
65471;SDS011;52068;50.710;14.492;2024-02-14T10:00:20;10.52;;;5.63;;
65471;SDS011;52068;50.710;14.492;2024-02-14T10:02:46;10.52;;;5.45;;
65471;SDS011;52068;50.710;14.492;2024-02-14T10:05:12;8.43;;;5.78;;
65471;SDS011;52068;50.710;14.492;2024-02-14T10:07:40;8.48;;;5.22;;
65471;SDS011;52068;50.710;14.492;2024-02-14T10:10:07;7.63;;;5.25;;
65471;SDS011;52068;50.710;14.492;2024-02-14T10:12:32;9.18;;;5.05;;
65471;SDS011;52068;50.710;14.492;2024-02-14T10:14:58;10.07;;;5.82;;
65471;SDS011;52068;50.710;14.492;2024-02-14T10:17:23;9.75;;;5.57;;
65471;SDS011;52068;50.710;14.492;2024-02-14T10:19:58;8.18;;;5.43;;
65471;SDS011;52068;50.710;14.492;2024-02-14T10:22:25;8.00;;;5.43;;
65471;SDS011;52068;50.710;14.492;2024-02-14T10:24:57;8.65;;;5.53;;
65471;SDS011;52068;50.710;14.492;2024-02-14T10:27:22;6.88;;;4.68;;
65471;SDS011;52068;50.710;14.492;2024-02-14T10:29:47;6.53;;;4.63;;
65471;SDS011;52068;50.710;14.492;2024-02-14T10:32:16;7.97;;;5.15;;
65471;SDS011;52068;50.710;14.492;2024-02-14T10:34:41;7.13;;;4.88;;
65471;SDS011;52068;50.710;14.492;2024-02-14T10:37:10;7.05;;;5.00;;
65471;SDS011;52068;50.710;14.492;2024-02-14T10:39:38;7.13;;;4.85;;
65471;SDS011;52068;50.710;14.492;2024-02-14T10:42:06;6.28;;;4.70;;
65471;SDS011;52068;50.710;14.492;2024-02-14T10:44:32;7.25;;;4.95;;
65471;SDS011;52068;50.710;14.492;2024-02-14T10:46:58;11.43;;;5.28;;
65471;SDS011;52068;50.710;14.492;2024-02-14T10:49:27;6.65;;;4.15;;
65471;SDS011;52068;50.710;14.492;2024-02-14T10:51:54;8.65;;;4.75;;
65471;SDS011;52068;50.710;14.492;2024-02-14T10:54:24;7.75;;;5.20;;
65471;SDS011;52068;50.710;14.492;2024-02-14T10:56:51;6.65;;;4.50;;
65471;SDS011;52068;50.710;14.492;2024-02-14T10:59:21;7.57;;;4.85;;
65471;SDS011;52068;50.710;14.492;2024-02-14T11:01:49;6.43;;;4.55;;
65471;SDS011;52068;50.710;14.492;2024-02-14T11:04:15;6.60;;;4.45;;
65471;SDS011;52068;50.710;14.492;2024-02-14T11:06:47;6.15;;;4.20;;
65471;SDS011;52068;50.710;14.492;2024-02-14T11:09:14;6.68;;;4.50;;
65471;SDS011;52068;50.710;14.492;2024-02-14T11:11:43;7.57;;;4.47;;
65471;SDS011;52068;50.710;14.492;2024-02-14T11:14:09;8.18;;;5.00;;
65471;SDS011;52068;50.710;14.492;2024-02-14T11:16:36;6.03;;;4.65;;
65471;SDS011;52068;50.710;14.492;2024-02-14T11:19:05;7.85;;;4.97;;
65471;SDS011;52068;50.710;14.492;2024-02-14T11:21:35;5.60;;;4.05;;
65471;SDS011;52068;50.710;14.492;2024-02-14T11:24:05;8.57;;;4.72;;
65471;SDS011;52068;50.710;14.492;2024-02-14T11:26:50;6.50;;;4.38;;
65471;SDS011;52068;50.710;14.492;2024-02-14T11:29:17;6.15;;;4.45;;
65471;SDS011;52068;50.710;14.492;2024-02-14T11:31:46;6.30;;;4.32;;
65471;SDS011;52068;50.710;14.492;2024-02-14T11:34:16;7.10;;;4.55;;
65471;SDS011;52068;50.710;14.492;2024-02-14T11:36:41;10.23;;;4.40;;
65471;SDS011;52068;50.710;14.492;2024-02-14T11:39:07;5.47;;;4.13;;
65471;SDS011;52068;50.710;14.492;2024-02-14T11:41:33;7.07;;;4.50;;
65471;SDS011;52068;50.710;14.492;2024-02-14T11:44:02;6.00;;;4.45;;
65471;SDS011;52068;50.710;14.492;2024-02-14T11:46:31;5.40;;;3.90;;
65471;SDS011;52068;50.710;14.492;2024-02-14T11:48:58;6.53;;;4.53;;
65471;SDS011;52068;50.710;14.492;2024-02-14T11:51:26;7.43;;;4.57;;
65471;SDS011;52068;50.710;14.492;2024-02-14T11:53:52;6.28;;;4.10;;
65471;SDS011;52068;50.710;14.492;2024-02-14T11:56:18;5.88;;;4.25;;
65471;SDS011;52068;50.710;14.492;2024-02-14T11:58:47;6.18;;;4.25;;
65471;SDS011;52068;50.710;14.492;2024-02-14T12:01:15;6.28;;;4.10;;
65471;SDS011;52068;50.710;14.492;2024-02-14T12:03:42;5.88;;;4.32;;
65471;SDS011;52068;50.710;14.492;2024-02-14T12:06:09;5.88;;;4.10;;
65471;SDS011;52068;50.710;14.492;2024-02-14T12:08:35;6.20;;;4.45;;
65471;SDS011;52068;50.710;14.492;2024-02-14T12:11:01;5.13;;;3.92;;
65471;SDS011;52068;50.710;14.492;2024-02-14T12:13:27;6.53;;;4.07;;
65471;SDS011;52068;50.710;14.492;2024-02-14T12:15:57;6.40;;;4.15;;
65471;SDS011;52068;50.710;14.492;2024-02-14T12:18:22;5.70;;;3.72;;
65471;SDS011;52068;50.710;14.492;2024-02-14T12:20:50;5.18;;;4.05;;
65471;SDS011;52068;50.710;14.492;2024-02-14T12:23:17;6.00;;;4.22;;
65471;SDS011;52068;50.710;14.492;2024-02-14T12:25:43;6.15;;;4.32;;
65471;SDS011;52068;50.710;14.492;2024-02-14T12:28:13;5.22;;;3.88;;
65471;SDS011;52068;50.710;14.492;2024-02-14T12:30:46;5.70;;;3.70;;
65471;SDS011;52068;50.710;14.492;2024-02-14T12:33:14;5.68;;;3.47;;
65471;SDS011;52068;50.710;14.492;2024-02-14T12:35:41;6.55;;;4.25;;
65471;SDS011;52068;50.710;14.492;2024-02-14T12:38:08;5.93;;;4.07;;
65471;SDS011;52068;50.710;14.492;2024-02-14T12:40:37;4.18;;;3.35;;
65471;SDS011;52068;50.710;14.492;2024-02-14T12:43:03;5.65;;;4.10;;
65471;SDS011;52068;50.710;14.492;2024-02-14T12:45:30;5.45;;;4.05;;
65471;SDS011;52068;50.710;14.492;2024-02-14T12:47:56;4.72;;;3.85;;
65471;SDS011;52068;50.710;14.492;2024-02-14T12:50:22;7.07;;;4.32;;
65471;SDS011;52068;50.710;14.492;2024-02-14T12:52:47;5.50;;;3.88;;
65471;SDS011;52068;50.710;14.492;2024-02-14T12:55:13;4.93;;;3.67;;
65471;SDS011;52068;50.710;14.492;2024-02-14T12:57:39;7.88;;;4.20;;
65471;SDS011;52068;50.710;14.492;2024-02-14T13:00:05;5.53;;;4.20;;
65471;SDS011;52068;50.710;14.492;2024-02-14T13:02:33;5.32;;;3.95;;
65471;SDS011;52068;50.710;14.492;2024-02-14T13:04:59;5.18;;;3.60;;
65471;SDS011;52068;50.710;14.492;2024-02-14T13:07:25;5.18;;;3.70;;
65471;SDS011;52068;50.710;14.492;2024-02-14T13:09:50;4.63;;;3.80;;
65471;SDS011;52068;50.710;14.492;2024-02-14T13:12:16;4.93;;;3.72;;
65471;SDS011;52068;50.710;14.492;2024-02-14T13:14:41;4.82;;;4.03;;
65471;SDS011;52068;50.710;14.492;2024-02-14T13:17:07;4.40;;;3.30;;
65471;SDS011;52068;50.710;14.492;2024-02-14T13:19:32;6.15;;;3.80;;
65471;SDS011;52068;50.710;14.492;2024-02-14T13:21:58;6.18;;;3.50;;
65471;SDS011;52068;50.710;14.492;2024-02-14T13:24:23;4.43;;;3.58;;
65471;SDS011;52068;50.710;14.492;2024-02-14T13:26:49;5.65;;;3.92;;
65471;SDS011;52068;50.710;14.492;2024-02-14T13:29:14;5.97;;;3.42;;
65471;SDS011;52068;50.710;14.492;2024-02-14T13:31:42;4.68;;;3.80;;
65471;SDS011;52068;50.710;14.492;2024-02-14T13:34:07;5.28;;;3.80;;
65471;SDS011;52068;50.710;14.492;2024-02-14T13:36:33;5.55;;;4.00;;
65471;SDS011;52068;50.710;14.492;2024-02-14T13:38:58;5.13;;;3.50;;
65471;SDS011;52068;50.710;14.492;2024-02-14T13:41:25;5.78;;;3.70;;
65471;SDS011;52068;50.710;14.492;2024-02-14T13:43:51;5.40;;;3.78;;
65471;SDS011;52068;50.710;14.492;2024-02-14T13:46:16;6.78;;;3.80;;
65471;SDS011;52068;50.710;14.492;2024-02-14T13:48:42;6.93;;;3.88;;
65471;SDS011;52068;50.710;14.492;2024-02-14T13:51:08;5.30;;;3.60;;
65471;SDS011;52068;50.710;14.492;2024-02-14T13:53:35;4.20;;;3.25;;
65471;SDS011;52068;50.710;14.492;2024-02-14T13:56:00;5.40;;;3.83;;
65471;SDS011;52068;50.710;14.492;2024-02-14T13:58:26;5.22;;;3.42;;
65471;SDS011;52068;50.710;14.492;2024-02-14T14:00:52;5.03;;;3.67;;
65471;SDS011;52068;50.710;14.492;2024-02-14T14:03:18;5.22;;;3.40;;
65471;SDS011;52068;50.710;14.492;2024-02-14T14:05:43;5.43;;;3.50;;
65471;SDS011;52068;50.710;14.492;2024-02-14T14:08:08;5.15;;;3.83;;
65471;SDS011;52068;50.710;14.492;2024-02-14T14:10:34;5.50;;;3.42;;
65471;SDS011;52068;50.710;14.492;2024-02-14T14:12:59;4.38;;;3.15;;
65471;SDS011;52068;50.710;14.492;2024-02-14T14:15:24;4.32;;;3.38;;
65471;SDS011;52068;50.710;14.492;2024-02-14T14:17:51;4.38;;;3.20;;
65471;SDS011;52068;50.710;14.492;2024-02-14T14:20:17;5.05;;;3.45;;
65471;SDS011;52068;50.710;14.492;2024-02-14T14:22:43;6.88;;;3.78;;